Time;durP1;ratioP1;P1;durP2;ratioP2;P2;SDS_P1;SDS_P2;PMS_P1;PMS_P2;Temp;Humidity;BMP_temperature;BMP_pressure;BME280_temperature;BME280_humidity;BME280_pressure;Samples;Min_cycle;Max_cycle;Signal;HPM_P1;HPM_P2
2021/07/28 00:00:12;;;;;;;1.92;1.27;;;;;;;-142.37;100.00;59669.53;5014678;28;20494;-59
2021/07/28 00:02:40;;;;;;;0.75;0.75;;;;;;;-142.37;100.00;59669.53;5015357;28;20416;-59
2021/07/28 00:05:07;;;;;;;1.30;1.00;;;;;;;-142.37;100.00;59669.53;5014904;28;20026;-59
2021/07/28 00:07:32;;;;;;;0.80;0.80;;;;;;;-142.37;100.00;59669.53;5015070;28;20034;-59
2021/07/28 00:09:57;;;;;;;3.08;1.17;;;;;;;-142.37;100.00;59669.53;5015031;28;20022;-60
2021/07/28 00:12:23;;;;;;;1.40;0.90;;;;;;;-142.37;100.00;59669.53;5014963;28;20041;-59
2021/07/28 00:14:48;;;;;;;1.83;1.10;;;;;;;-142.37;100.00;59669.53;5015034;28;20500;-60
2021/07/28 00:17:14;;;;;;;2.10;1.00;;;;;;;-142.37;100.00;59669.53;5014903;28;20033;-60
2021/07/28 00:19:53;;;;;;;1.30;1.10;;;;;;;-142.37;100.00;59669.53;5013664;28;20028;-60
2021/07/28 00:25:05;;;;;;;1.60;1.00;;;;;;;-142.37;100.00;59669.53;5014878;28;20029;-60
2021/07/28 00:27:30;;;;;;;0.93;0.90;;;;;;;-142.37;100.00;59669.53;5014529;28;20045;-59
2021/07/28 00:29:55;;;;;;;1.33;1.00;;;;;;;-142.37;100.00;59669.53;5033393;28;20029;-59
2021/07/28 00:32:21;;;;;;;1.63;1.00;;;;;;;-142.37;100.00;59669.53;5034151;28;20037;-60
2021/07/28 00:34:46;;;;;;;1.15;1.00;;;;;;;-142.37;100.00;59669.53;5034334;28;20032;-58
2021/07/28 00:37:11;;;;;;;1.73;1.10;;;;;;;-142.37;100.00;59669.53;5034276;28;20056;-59
2021/07/28 00:39:37;;;;;;;0.73;0.73;;;;;;;-142.37;100.00;59669.53;5034185;28;20063;-58
2021/07/28 00:42:02;;;;;;;0.77;0.77;;;;;;;-142.37;100.00;59669.53;5034035;28;20043;-59
2021/07/28 00:44:28;;;;;;;3.17;1.23;;;;;;;-142.37;100.00;59669.53;5033947;28;20455;-60
2021/07/28 00:46:53;;;;;;;1.13;0.90;;;;;;;-142.37;100.00;59669.53;5033930;28;20037;-59
2021/07/28 00:49:18;;;;;;;1.27;1.00;;;;;;;-142.37;100.00;59669.53;5033942;28;20490;-59
2021/07/28 00:51:44;;;;;;;1.95;0.95;;;;;;;-142.37;100.00;59669.53;5034196;28;20036;-59
2021/07/28 00:54:10;;;;;;;0.95;0.85;;;;;;;-142.37;100.00;59669.53;5033917;28;20067;-59
2021/07/28 00:56:36;;;;;;;2.35;0.98;;;;;;;-142.37;100.00;59669.53;5033702;28;20025;-59
2021/07/28 00:59:02;;;;;;;1.63;1.23;;;;;;;-142.37;100.00;59669.53;5033618;28;20480;-60
2021/07/28 01:01:27;;;;;;;1.73;1.05;;;;;;;-142.37;100.00;59669.53;5033961;28;20033;-59
2021/07/28 01:03:53;;;;;;;1.80;1.13;;;;;;;-142.37;100.00;59669.53;5033575;28;20025;-59
2021/07/28 01:06:18;;;;;;;1.35;0.70;;;;;;;-142.37;100.00;59669.53;5033489;28;20029;-58
2021/07/28 01:08:44;;;;;;;1.52;1.05;;;;;;;-142.37;100.00;59669.53;5033736;28;20502;-59
2021/07/28 01:11:10;;;;;;;2.28;1.30;;;;;;;-142.37;100.00;59669.53;5033398;28;20025;-59
2021/07/28 01:13:36;;;;;;;1.52;0.90;;;;;;;-142.37;100.00;59669.53;5033769;28;20033;-59
2021/07/28 01:16:10;;;;;;;1.13;0.80;;;;;;;-142.37;100.00;59669.53;5033528;28;20479;-58
2021/07/28 01:18:36;;;;;;;2.10;1.40;;;;;;;-142.37;100.00;59669.53;5033369;28;20033;-60
2021/07/28 01:21:05;;;;;;;1.40;1.02;;;;;;;-142.37;100.00;59669.53;5033776;28;20061;-60
2021/07/28 01:23:31;;;;;;;1.00;1.00;;;;;;;-142.37;100.00;59669.53;5033687;28;20025;-59
2021/07/28 01:26:00;;;;;;;2.40;0.95;;;;;;;-142.37;100.00;59669.53;5033354;28;20029;-59
2021/07/28 01:28:27;;;;;;;1.50;1.02;;;;;;;-142.37;100.00;59669.53;5033440;28;20025;-59
2021/07/28 01:31:07;;;;;;;0.95;0.95;;;;;;;-142.37;100.00;59669.53;5033012;28;20032;-59
2021/07/28 01:33:38;;;;;;;2.05;1.15;;;;;;;-142.37;100.00;59669.53;5033417;28;20026;-59
2021/07/28 01:36:05;;;;;;;1.85;1.20;;;;;;;-142.37;100.00;59669.53;5033325;28;20053;-59
2021/07/28 01:38:32;;;;;;;1.40;0.80;;;;;;;-142.37;100.00;59669.53;5033123;28;20025;-60
2021/07/28 01:40:59;;;;;;;1.15;1.05;;;;;;;-142.37;100.00;59669.53;5033289;28;20021;-58
2021/07/28 01:43:27;;;;;;;2.78;1.23;;;;;;;-142.37;100.00;59669.53;5032858;28;20025;-58
2021/07/28 01:45:53;;;;;;;1.63;1.40;;;;;;;-142.37;100.00;59669.53;5033004;28;20377;-60
2021/07/28 01:48:19;;;;;;;2.22;0.90;;;;;;;-142.37;100.00;59669.53;5033157;28;20580;-59
2021/07/28 01:50:45;;;;;;;1.45;1.17;;;;;;;-142.37;100.00;59669.53;5033340;28;20837;-60
2021/07/28 01:53:11;;;;;;;1.33;1.02;;;;;;;-142.37;100.00;59669.53;5032852;28;20086;-59
2021/07/28 01:55:37;;;;;;;3.10;1.05;;;;;;;-142.37;100.00;59669.53;5033173;28;20013;-59
2021/07/28 01:58:02;;;;;;;2.25;1.05;;;;;;;-142.37;100.00;59669.53;5032775;28;20113;-59
2021/07/28 02:00:28;;;;;;;2.40;1.00;;;;;;;-142.37;100.00;59669.53;5032708;28;20077;-59
2021/07/28 02:02:54;;;;;;;2.75;1.10;;;;;;;-142.37;100.00;59669.53;5032771;28;20070;-58
2021/07/28 02:05:19;;;;;;;1.30;1.05;;;;;;;-142.37;100.00;59669.53;5032921;28;20094;-59
2021/07/28 02:07:44;;;;;;;1.23;1.10;;;;;;;-142.37;100.00;59669.53;5033023;28;20041;-59
2021/07/28 02:10:10;;;;;;;2.45;1.17;;;;;;;-142.37;100.00;59669.53;5032561;28;20028;-59
2021/07/28 02:12:35;;;;;;;1.75;1.30;;;;;;;-142.37;100.00;59669.53;5033015;28;20033;-59
2021/07/28 02:15:01;;;;;;;1.42;1.00;;;;;;;-142.37;100.00;59669.53;5032884;28;20040;-59
2021/07/28 02:17:26;;;;;;;2.15;0.90;;;;;;;-142.37;100.00;59669.53;5032737;28;20491;-59
2021/07/28 02:19:52;;;;;;;2.90;1.17;;;;;;;-142.37;100.00;59669.53;5033011;28;20112;-59
2021/07/28 02:22:17;;;;;;;1.08;0.90;;;;;;;-142.37;100.00;59669.53;5031268;28;20049;-59
2021/07/28 02:24:42;;;;;;;0.90;0.90;;;;;;;-142.37;100.00;59669.53;5032685;28;20478;-59
2021/07/28 02:27:08;;;;;;;0.85;0.82;;;;;;;-142.37;100.00;59669.53;5032500;28;20498;-60
2021/07/28 02:29:35;;;;;;;1.30;1.20;;;;;;;-142.37;100.00;59669.53;5017058;28;20030;-59
2021/07/28 02:32:02;;;;;;;1.92;1.15;;;;;;;-142.37;100.00;59669.53;5012850;28;20057;-59
2021/07/28 02:34:31;;;;;;;1.33;0.93;;;;;;;-142.37;100.00;59669.53;5012737;28;20029;-60
2021/07/28 02:36:57;;;;;;;3.10;1.40;;;;;;;-142.37;100.00;59669.53;5011497;28;20026;-58
2021/07/28 02:39:23;;;;;;;2.10;1.20;;;;;;;-142.37;100.00;59669.53;5012868;28;20044;-59
2021/07/28 02:41:49;;;;;;;1.95;1.17;;;;;;;-142.37;100.00;59669.53;5013738;28;20485;-60
2021/07/28 02:44:14;;;;;;;2.35;1.30;;;;;;;-142.37;100.00;59669.53;5016353;28;20483;-59
2021/07/28 02:46:39;;;;;;;2.15;0.93;;;;;;;-142.37;100.00;59669.53;5016726;28;20026;-59
2021/07/28 02:49:05;;;;;;;1.58;1.13;;;;;;;-142.37;100.00;59669.53;5016544;28;20029;-59
2021/07/28 02:51:30;;;;;;;1.73;1.20;;;;;;;-142.37;100.00;59669.53;5016313;28;20032;-59
2021/07/28 02:53:56;;;;;;;1.38;1.10;;;;;;;-142.37;100.00;59669.53;5016281;28;20038;-59
2021/07/28 02:56:21;;;;;;;1.10;1.00;;;;;;;-142.37;100.00;59669.53;5016470;28;20477;-59
2021/07/28 02:58:46;;;;;;;1.13;1.00;;;;;;;-142.37;100.00;59669.53;5016273;28;20113;-59
2021/07/28 03:01:11;;;;;;;1.02;0.73;;;;;;;-142.37;100.00;59669.53;5015257;28;20030;-59
2021/07/28 03:03:37;;;;;;;2.33;0.93;;;;;;;-142.37;100.00;59669.53;5016164;28;20037;-59
2021/07/28 03:06:02;;;;;;;2.13;1.10;;;;;;;-142.37;100.00;59669.53;5015879;28;20018;-60
2021/07/28 03:08:28;;;;;;;2.03;1.25;;;;;;;-142.37;100.00;59669.53;5016318;28;20373;-59
2021/07/28 03:10:53;;;;;;;0.80;0.70;;;;;;;-142.37;100.00;59669.53;5016154;28;20032;-59
2021/07/28 03:13:18;;;;;;;0.80;0.80;;;;;;;-142.37;100.00;59669.53;5016089;28;20045;-59
2021/07/28 03:15:44;;;;;;;0.77;0.60;;;;;;;-142.37;100.00;59669.53;5016067;28;20064;-59
2021/07/28 03:18:09;;;;;;;1.52;0.80;;;;;;;-142.37;100.00;59669.53;5015786;28;20026;-59
2021/07/28 03:20:35;;;;;;;2.72;1.17;;;;;;;-142.37;100.00;59669.53;5015899;28;20056;-59
2021/07/28 03:23:01;;;;;;;0.77;0.65;;;;;;;-142.37;100.00;59669.53;5015930;28;20029;-59
2021/07/28 03:25:26;;;;;;;1.10;0.80;;;;;;;-142.37;100.00;59669.53;5015828;28;20034;-58
2021/07/28 03:27:51;;;;;;;0.70;0.70;;;;;;;-142.37;100.00;59669.53;5017523;28;20060;-59
2021/07/28 03:30:17;;;;;;;0.85;0.60;;;;;;;-142.37;100.00;59669.53;5035694;28;20025;-59
2021/07/28 03:32:42;;;;;;;0.60;0.60;;;;;;;-142.37;100.00;59669.53;5035391;28;20025;-59
2021/07/28 03:35:08;;;;;;;1.20;0.75;;;;;;;-142.37;100.00;59669.53;5035436;28;20021;-59
2021/07/28 03:37:33;;;;;;;2.75;0.75;;;;;;;-142.37;100.00;59669.53;5035329;28;20022;-59
2021/07/28 03:40:00;;;;;;;1.95;0.70;;;;;;;-142.37;100.00;59669.53;5035595;28;20024;-59
2021/07/28 03:42:29;;;;;;;2.88;1.33;;;;;;;-142.37;100.00;59669.53;5035417;28;20022;-59
2021/07/28 03:44:56;;;;;;;0.82;0.57;;;;;;;-142.37;100.00;59669.53;5034936;28;20467;-59
2021/07/28 03:47:21;;;;;;;1.52;0.43;;;;;;;-142.37;100.00;59669.53;5035084;28;20119;-60
2021/07/28 03:49:46;;;;;;;2.58;0.60;;;;;;;-142.37;100.00;59669.53;5035315;28;20428;-59
2021/07/28 03:52:12;;;;;;;1.60;1.10;;;;;;;-142.37;100.00;59669.53;5034726;28;20025;-58
2021/07/28 03:54:37;;;;;;;0.70;0.50;;;;;;;-142.37;100.00;59669.53;5034893;28;20465;-59
2021/07/28 03:57:02;;;;;;;1.48;0.60;;;;;;;-142.37;100.00;59669.53;5034889;28;20342;-59
2021/07/28 03:59:28;;;;;;;1.13;0.55;;;;;;;-142.37;100.00;59669.53;5034816;28;20038;-60
2021/07/28 04:01:53;;;;;;;0.65;0.50;;;;;;;-142.37;100.00;59669.53;5035095;28;20032;-59
2021/07/28 04:04:18;;;;;;;0.57;0.50;;;;;;;-142.37;100.00;59669.53;5033822;28;20029;-59
2021/07/28 04:06:44;;;;;;;0.88;0.50;;;;;;;-142.37;100.00;59669.53;5035148;28;20033;-59
2021/07/28 04:09:09;;;;;;;1.65;0.60;;;;;;;-142.37;100.00;59669.53;5014165;28;20113;-58
2021/07/28 04:11:34;;;;;;;0.82;0.45;;;;;;;-142.37;100.00;59669.53;5014993;28;20120;-58
2021/07/28 04:13:59;;;;;;;0.80;0.40;;;;;;;-142.37;100.00;59669.53;5015106;28;20461;-59
2021/07/28 04:16:28;;;;;;;0.60;0.60;;;;;;;-142.37;100.00;59669.53;5014892;28;20026;-59
2021/07/28 04:18:53;;;;;;;0.65;0.40;;;;;;;-142.37;100.00;59669.53;5014829;28;20826;-58
2021/07/28 04:21:19;;;;;;;1.20;0.60;;;;;;;-142.37;100.00;59669.53;5014709;28;20034;-59
2021/07/28 04:23:44;;;;;;;1.17;0.63;;;;;;;-142.37;100.00;59669.53;5014801;28;20524;-59
2021/07/28 04:26:09;;;;;;;0.98;0.45;;;;;;;-142.37;100.00;59669.53;5014498;28;20072;-59
2021/07/28 04:28:35;;;;;;;1.27;0.45;;;;;;;-142.37;100.00;59669.53;5022439;28;20018;-58
2021/07/28 04:31:00;;;;;;;0.90;0.60;;;;;;;-142.37;100.00;59669.53;5034233;28;20017;-59
2021/07/28 04:33:25;;;;;;;0.85;0.40;;;;;;;-142.37;100.00;59669.53;5034329;28;20053;-59
2021/07/28 04:35:51;;;;;;;1.08;0.60;;;;;;;-142.37;100.00;59669.53;5034327;28;20071;-58
2021/07/28 04:38:16;;;;;;;1.95;0.57;;;;;;;-142.37;100.00;59669.53;5034270;28;20044;-59
2021/07/28 04:40:41;;;;;;;2.03;0.73;;;;;;;-142.37;100.00;59669.53;5034058;28;20021;-59
2021/07/28 04:43:07;;;;;;;2.45;0.80;;;;;;;-142.37;100.00;59669.53;5033980;28;20033;-59
2021/07/28 04:45:32;;;;;;;1.52;0.35;;;;;;;-142.37;100.00;59669.53;5034126;28;20040;-59
2021/07/28 04:47:58;;;;;;;2.47;0.80;;;;;;;-142.37;100.00;59669.53;5034006;28;20060;-59
2021/07/28 04:50:23;;;;;;;3.25;1.45;;;;;;;-142.37;100.00;59669.53;5034023;28;20032;-59
2021/07/28 04:52:48;;;;;;;0.95;0.50;;;;;;;-142.37;100.00;59669.53;5034202;28;20033;-59
2021/07/28 04:55:14;;;;;;;1.63;0.50;;;;;;;-142.37;100.00;59669.53;5034044;28;20562;-59
2021/07/28 04:57:39;;;;;;;0.80;0.50;;;;;;;-142.37;100.00;59669.53;5034132;28;20112;-60
2021/07/28 05:00:05;;;;;;;0.68;0.55;;;;;;;-142.37;100.00;59669.53;5033572;28;20045;-59
2021/07/28 05:02:31;;;;;;;1.92;0.52;;;;;;;-142.37;100.00;59669.53;5033844;28;20065;-59
2021/07/28 05:04:56;;;;;;;2.72;0.47;;;;;;;-142.37;100.00;59669.53;5033094;28;20099;-58
2021/07/28 05:07:21;;;;;;;1.48;0.40;;;;;;;-142.37;100.00;59669.53;5033777;28;20468;-59
2021/07/28 05:09:47;;;;;;;1.20;0.40;;;;;;;-142.37;100.00;59669.53;5033654;28;20507;-59
2021/07/28 05:12:12;;;;;;;0.40;0.40;;;;;;;-142.37;100.00;59669.53;5033608;28;20105;-59
2021/07/28 05:14:37;;;;;;;2.35;0.60;;;;;;;-142.37;100.00;59669.53;5033770;28;20036;-59
2021/07/28 05:17:03;;;;;;;0.75;0.50;;;;;;;-142.37;100.00;59669.53;5033561;28;20096;-59
2021/07/28 05:19:28;;;;;;;1.70;0.60;;;;;;;-142.37;100.00;59669.53;5033382;28;20110;-59
2021/07/28 05:21:53;;;;;;;1.17;0.68;;;;;;;-142.37;100.00;59669.53;5032302;28;20036;-59
2021/07/28 05:24:19;;;;;;;3.05;0.90;;;;;;;-142.37;100.00;59669.53;5033450;28;20415;-59
2021/07/28 05:26:44;;;;;;;1.58;0.50;;;;;;;-142.37;100.00;59669.53;5033385;28;20053;-59
2021/07/28 05:29:10;;;;;;;1.33;0.60;;;;;;;-142.37;100.00;59669.53;5020804;28;20050;-59
2021/07/28 05:31:35;;;;;;;1.40;0.60;;;;;;;-142.37;100.00;59669.53;5013379;28;20033;-60
2021/07/28 05:34:00;;;;;;;0.50;0.30;;;;;;;-142.37;100.00;59669.53;5013734;28;20455;-60
2021/07/28 05:36:26;;;;;;;2.13;0.63;;;;;;;-142.37;100.00;59669.53;5013398;28;20048;-59
2021/07/28 05:38:51;;;;;;;1.20;0.90;;;;;;;-142.37;100.00;59669.53;5013758;28;20384;-59
2021/07/28 05:41:16;;;;;;;0.47;0.40;;;;;;;-142.37;100.00;59669.53;5013119;28;20469;-59
2021/07/28 05:43:42;;;;;;;2.15;1.30;;;;;;;-142.37;100.00;59669.53;5013256;28;20030;-59
2021/07/28 05:46:07;;;;;;;1.83;0.90;;;;;;;-142.37;100.00;59669.53;5013137;28;20018;-59
2021/07/28 05:48:32;;;;;;;1.40;0.80;;;;;;;-142.37;100.00;59669.53;5012112;28;20053;-59
2021/07/28 05:50:59;;;;;;;1.10;0.40;;;;;;;-142.37;100.00;59669.53;5013397;28;20492;-59
2021/07/28 05:53:24;;;;;;;2.75;0.95;;;;;;;-142.37;100.00;59669.53;5013427;28;20091;-59
2021/07/28 05:55:49;;;;;;;0.65;0.38;;;;;;;-142.37;100.00;59669.53;5013404;28;20053;-59
2021/07/28 05:58:15;;;;;;;1.55;0.50;;;;;;;-142.37;100.00;59669.53;5013240;28;20117;-59
2021/07/28 06:00:40;;;;;;;1.13;0.65;;;;;;;-142.37;100.00;59669.53;5013268;28;20042;-59
2021/07/28 06:03:05;;;;;;;0.82;0.45;;;;;;;-142.37;100.00;59669.53;5013313;28;20025;-59
2021/07/28 06:05:31;;;;;;;1.58;0.68;;;;;;;-142.37;100.00;59669.53;5013273;28;20373;-59
2021/07/28 06:07:56;;;;;;;1.45;0.70;;;;;;;-142.37;100.00;59669.53;5013267;28;20068;-59
2021/07/28 06:10:21;;;;;;;1.95;0.50;;;;;;;-142.37;100.00;59669.53;5012728;28;20045;-59
2021/07/28 06:12:47;;;;;;;1.05;0.52;;;;;;;-142.37;100.00;59669.53;5013335;28;20025;-59
2021/07/28 06:15:12;;;;;;;1.38;0.60;;;;;;;-142.37;100.00;59669.53;5013104;28;20021;-59
2021/07/28 06:17:37;;;;;;;2.65;0.95;;;;;;;-142.37;100.00;59669.53;5016822;28;20022;-59
2021/07/28 06:20:04;;;;;;;1.05;0.57;;;;;;;-142.37;100.00;59669.53;5017145;28;20025;-60
2021/07/28 06:22:29;;;;;;;1.65;0.50;;;;;;;-142.37;100.00;59669.53;5016931;28;20038;-59
2021/07/28 06:24:55;;;;;;;2.15;0.73;;;;;;;-142.37;100.00;59669.53;5016701;28;20024;-60
2021/07/28 06:27:21;;;;;;;1.27;0.70;;;;;;;-142.37;100.00;59669.53;5016958;28;20423;-59
2021/07/28 06:29:46;;;;;;;1.23;0.65;;;;;;;-142.37;100.00;59669.53;5034260;28;20468;-59
2021/07/28 06:32:11;;;;;;;0.88;0.70;;;;;;;-142.37;100.00;59669.53;5036532;28;20040;-58
2021/07/28 06:34:37;;;;;;;0.80;0.50;;;;;;;-142.37;100.00;59669.53;5036715;28;20021;-59
2021/07/28 06:37:02;;;;;;;2.22;0.50;;;;;;;-142.37;100.00;59669.53;5035405;28;20021;-59
2021/07/28 06:39:28;;;;;;;1.83;0.50;;;;;;;-142.37;100.00;59669.53;5036129;28;20048;-59
2021/07/28 06:41:53;;;;;;;0.60;0.60;;;;;;;-142.37;100.00;59669.53;5036689;28;20112;-59
2021/07/28 06:44:18;;;;;;;1.75;0.40;;;;;;;-142.37;100.00;59669.53;5036095;28;20029;-58
2021/07/28 06:46:44;;;;;;;1.80;0.55;;;;;;;-142.37;100.00;59669.53;5036552;28;20468;-59
2021/07/28 06:49:09;;;;;;;1.02;0.50;;;;;;;-142.37;100.00;59669.53;5036344;28;20357;-59
2021/07/28 06:51:34;;;;;;;0.73;0.50;;;;;;;-142.37;100.00;59669.53;5036470;28;20442;-59
2021/07/28 06:54:00;;;;;;;1.00;0.40;;;;;;;-142.37;100.00;59669.53;5036143;28;20029;-59
2021/07/28 06:56:25;;;;;;;2.70;0.60;;;;;;;-142.37;100.00;59669.53;5036271;28;20013;-59
2021/07/28 06:58:50;;;;;;;1.40;0.77;;;;;;;-142.37;100.00;59669.53;5035296;28;20063;-59
2021/07/28 07:01:16;;;;;;;0.60;0.60;;;;;;;-142.37;100.00;59669.53;5036008;28;20024;-59
2021/07/28 07:03:41;;;;;;;1.02;0.47;;;;;;;-142.37;100.00;59669.53;5035363;28;20037;-59
2021/07/28 07:06:06;;;;;;;1.73;0.40;;;;;;;-142.37;100.00;59669.53;5035535;28;20105;-59
2021/07/28 07:08:32;;;;;;;0.90;0.50;;;;;;;-142.37;100.00;59669.53;5035195;28;20048;-59
2021/07/28 07:10:58;;;;;;;1.95;0.82;;;;;;;-142.37;100.00;59669.53;5035626;28;20052;-59
2021/07/28 07:13:24;;;;;;;1.65;0.82;;;;;;;-142.37;100.00;59669.53;5035324;28;20037;-59
2021/07/28 07:15:49;;;;;;;2.10;0.50;;;;;;;-142.37;100.00;59669.53;5035037;28;20033;-59
2021/07/28 07:18:15;;;;;;;1.08;0.57;;;;;;;-142.37;100.00;59669.53;5034928;28;20054;-59
2021/07/28 07:20:40;;;;;;;1.15;0.60;;;;;;;-142.37;100.00;59669.53;5035687;28;20037;-59
2021/07/28 07:23:06;;;;;;;1.30;0.70;;;;;;;-142.37;100.00;59669.53;5035407;28;20480;-60
2021/07/28 07:25:31;;;;;;;1.77;0.80;;;;;;;-142.37;100.00;59669.53;5035460;28;20345;-59
2021/07/28 07:27:56;;;;;;;1.42;0.80;;;;;;;-142.37;100.00;59669.53;5034401;28;20030;-59
2021/07/28 07:30:22;;;;;;;0.82;0.50;;;;;;;-142.37;100.00;59669.53;5034781;28;20033;-59
2021/07/28 07:33:37;;;;;;;0.77;0.55;;;;;;;-142.37;100.00;59669.53;5033830;28;20025;-60
2021/07/28 07:35:33;;;;;;;0.80;0.60;;;;;;;-142.37;100.00;59669.53;5033531;28;20060;-59
2021/07/28 07:37:58;;;;;;;2.33;0.60;;;;;;;-142.37;100.00;59669.53;5035596;28;20396;-59
2021/07/28 07:40:23;;;;;;;1.85;0.77;;;;;;;-142.37;100.00;59669.53;5032943;28;20040;-59
2021/07/28 07:42:49;;;;;;;2.70;1.00;;;;;;;-142.37;100.00;59669.53;5034489;28;20100;-59
2021/07/28 07:45:14;;;;;;;2.13;0.95;;;;;;;-142.37;100.00;59669.53;5034717;28;20109;-59
2021/07/28 07:47:39;;;;;;;2.85;0.70;;;;;;;-142.37;100.00;59669.53;5034047;28;20114;-59
2021/07/28 07:50:05;;;;;;;0.50;0.50;;;;;;;-142.37;100.00;59669.53;5035361;28;20021;-59
2021/07/28 07:52:30;;;;;;;1.48;0.80;;;;;;;-142.37;100.00;59669.53;5034978;28;20017;-60
2021/07/28 07:54:56;;;;;;;2.33;0.68;;;;;;;-142.37;100.00;59669.53;5035127;28;20017;-59
2021/07/28 07:57:21;;;;;;;3.10;0.95;;;;;;;-142.37;100.00;59669.53;5035083;28;20033;-59
2021/07/28 07:59:46;;;;;;;1.02;0.60;;;;;;;-142.37;100.00;59669.53;5034771;28;20087;-60
2021/07/28 08:02:12;;;;;;;1.67;0.80;;;;;;;-142.37;100.00;59669.53;5035081;28;20028;-59
2021/07/28 08:04:37;;;;;;;1.25;0.50;;;;;;;-142.37;100.00;59669.53;5034512;28;20064;-60
2021/07/28 08:07:03;;;;;;;0.70;0.47;;;;;;;-142.37;100.00;59669.53;5033844;28;20021;-60
2021/07/28 08:09:28;;;;;;;1.02;0.60;;;;;;;-142.37;100.00;59669.53;5032863;28;20022;-59
2021/07/28 08:11:54;;;;;;;0.55;0.50;;;;;;;-142.37;100.00;59669.53;5034141;28;20423;-59
2021/07/28 08:14:19;;;;;;;0.57;0.40;;;;;;;-142.37;100.00;59669.53;5032724;28;20017;-59
2021/07/28 08:16:45;;;;;;;5.03;0.80;;;;;;;-142.37;100.00;59669.53;5033901;28;20040;-59
2021/07/28 08:19:10;;;;;;;1.02;0.60;;;;;;;-142.37;100.00;59669.53;5033179;28;20040;-59
2021/07/28 08:21:36;;;;;;;2.40;0.70;;;;;;;-142.37;100.00;59669.53;5034023;28;20044;-59
2021/07/28 08:24:01;;;;;;;0.93;0.60;;;;;;;-142.37;100.00;59669.53;5033483;28;20033;-60
2021/07/28 08:26:26;;;;;;;2.50;0.80;;;;;;;-142.37;100.00;59669.53;5033120;28;20523;-60
2021/07/28 08:28:52;;;;;;;1.80;0.77;;;;;;;-142.37;100.00;59669.53;5033543;28;20029;-59
2021/07/28 08:31:17;;;;;;;0.90;0.60;;;;;;;-142.37;100.00;59669.53;5034240;28;20535;-60
2021/07/28 08:33:43;;;;;;;3.22;0.70;;;;;;;-142.37;100.00;59669.53;5035367;28;20482;-59
2021/07/28 08:36:08;;;;;;;1.88;0.82;;;;;;;-142.37;100.00;59669.53;5036277;28;20453;-60
2021/07/28 08:38:34;;;;;;;2.67;0.82;;;;;;;-142.37;100.00;59669.53;5041228;28;20032;-59
2021/07/28 08:41:00;;;;;;;1.52;0.85;;;;;;;-142.37;100.00;59669.53;5041001;28;20024;-59
2021/07/28 08:43:34;;;;;;;1.40;0.77;;;;;;;-142.37;100.00;59669.53;5023242;28;20045;-59
2021/07/28 08:46:04;;;;;;;2.53;0.95;;;;;;;-142.37;100.00;59669.53;5044858;28;20104;-59
2021/07/28 08:48:30;;;;;;;1.58;0.75;;;;;;;-142.37;100.00;59669.53;5035400;28;20163;-58
2021/07/28 08:50:57;;;;;;;1.92;0.88;;;;;;;-142.37;100.00;59669.53;5034380;28;20092;-59
2021/07/28 08:53:23;;;;;;;2.10;1.00;;;;;;;-142.37;100.00;59669.53;5033365;28;20033;-59
2021/07/28 08:55:51;;;;;;;2.78;0.88;;;;;;;-142.37;100.00;59669.53;5033352;28;20021;-59
2021/07/28 08:58:20;;;;;;;1.45;0.90;;;;;;;-142.37;100.00;59669.53;5032796;28;20040;-58
2021/07/28 09:00:55;;;;;;;3.15;1.10;;;;;;;;;;5069681;28;20398;-58
2021/07/28 09:03:20;;;;;;;3.50;1.23;;;;;;;;;;5067049;28;20024;-58
2021/07/28 09:05:47;;;;;;;2.10;0.90;;;;;;;;;;5056824;28;20036;-58
2021/07/28 09:08:25;;;;;;;2.92;1.17;;;;;;;;;;5055112;28;20021;-58
2021/07/28 09:10:54;;;;;;;4.18;0.90;;;;;;;;;;5049880;28;20096;-58
2021/07/28 09:13:26;;;;;;;3.78;1.48;;;;;;;;;;5049769;28;20031;-58
2021/07/28 09:15:53;;;;;;;3.38;0.93;;;;;;;;;;5053592;28;20032;-58
2021/07/28 09:18:28;;;;;;;2.10;0.93;;;;;;;;;;5050407;28;20025;-58
2021/07/28 09:20:54;;;;;;;3.25;0.80;;;;;;;;;;5047284;28;20029;-58
2021/07/28 09:23:19;;;;;;;3.03;1.08;;;;;;;;;;5049280;28;20017;-59
2021/07/28 09:25:50;;;;;;;3.80;0.90;;;;;;;;;;5049394;28;20037;-58
2021/07/28 09:28:19;;;;;;;5.03;1.40;;;;;;;;;;5049673;28;20255;-58
2021/07/28 09:30:45;;;;;;;4.65;1.23;;;;;;;;;;5048775;28;20029;-58
2021/07/28 09:33:10;;;;;;;3.08;1.20;;;;;;;;;;5049562;28;20375;-58
2021/07/28 09:35:51;;;;;;;6.50;1.40;;;;;;;;;;5048866;28;20482;-58
2021/07/28 09:38:35;;;;;;;7.38;1.77;;;;;;;;;;5049564;28;20460;-58
2021/07/28 09:41:19;;;;;;;7.00;2.20;;;;;;;;;;5048863;28;20025;-58
2021/07/28 09:43:45;;;;;;;8.18;1.67;;;;;;;;;;5048725;28;20036;-58
2021/07/28 09:46:24;;;;;;;9.25;1.90;;;;;;;;;;5048014;28;20037;-59
2021/07/28 09:48:49;;;;;;;8.20;1.80;;;;;;;;;;5048484;28;20113;-58
2021/07/28 09:51:34;;;;;;;5.00;1.60;;;;;;;;;;5047336;28;20107;-58
2021/07/28 09:54:04;;;;;;;4.88;2.10;;;;;;;;;;5033871;28;20021;-58
2021/07/28 09:56:35;;;;;;;3.78;1.45;;;;;;;;;;5047929;28;20025;-58
2021/07/28 09:59:02;;;;;;;5.82;1.58;;;;;;;;;;5048901;28;20087;-58
2021/07/28 10:01:28;;;;;;;5.63;1.50;;;;;;;;;;5049447;28;20025;-58
2021/07/28 10:03:56;;;;;;;4.47;1.52;;;;;;;;;;5049280;28;20079;-59
2021/07/28 10:06:23;;;;;;;3.97;1.38;;;;;;;;;;5049170;28;20017;-58
2021/07/28 10:08:52;;;;;;;4.70;1.67;;;;;;;;;;5049338;28;20024;-58
2021/07/28 10:11:18;;;;;;;4.55;1.33;;;;;;;;;;5041111;28;20088;-59
2021/07/28 10:13:44;;;;;;;3.67;1.40;;;;;;;;;;5035373;28;20029;-58
2021/07/28 10:16:10;;;;;;;2.40;0.77;;;;;;;;;;5036008;28;20478;-59
2021/07/28 10:18:36;;;;;;;2.33;0.75;;;;;;;;;;5035386;28;20120;-58
2021/07/28 10:21:01;;;;;;;2.42;1.05;;;;;;;;;;5035819;28;20018;-58
2021/07/28 10:23:26;;;;;;;3.57;0.70;;;;;;;;;;5035398;28;20071;-58
2021/07/28 10:25:51;;;;;;;2.10;0.93;;;;;;;;;;5035861;28;20721;-59
2021/07/28 10:28:17;;;;;;;2.03;0.85;;;;;;;;;;5035425;28;20709;-58
2021/07/28 10:30:45;;;;;;;2.25;0.90;;;;;;;;;;5035514;28;20028;-58
2021/07/28 10:33:25;;;;;;;1.38;0.63;;;;;;;;;;5035468;28;20032;-58
2021/07/28 10:35:51;;;;;;;1.75;0.90;;;;;;;;;;5034916;28;20460;-58
2021/07/28 10:38:20;;;;;;;1.60;0.70;;;;;;;;;;5034480;28;20488;-58
2021/07/28 10:40:50;;;;;;;0.63;0.50;;;;;;;;;;5035279;28;20026;-58
2021/07/28 10:43:15;;;;;;;2.45;0.60;;;;;;;;;;5035189;28;20018;-58
2021/07/28 10:45:53;;;;;;;1.20;0.55;;;;;;;;;;5035231;28;20483;-58
2021/07/28 10:48:36;;;;;;;2.80;0.80;;;;;;;;;;5035196;28;20077;-58
2021/07/28 10:51:01;;;;;;;3.63;0.50;;;;;;;;;;5035111;28;20025;-59
2021/07/28 10:53:45;;;;;;;2.50;0.63;;;;;;;;;;5035066;28;20026;-58
2021/07/28 10:56:11;;;;;;;1.88;0.70;;;;;;;;;;5034851;28;20460;-58
2021/07/28 10:58:36;;;;;;;2.83;0.82;;;;;;;;;;5034826;28;20017;-59
2021/07/28 11:01:01;;;;;;;2.73;0.70;;;;;;;;;;5035037;28;20024;-57
2021/07/28 11:03:30;;;;;;;1.48;0.60;;;;;;;;;;5034548;28;20769;-58
2021/07/28 11:06:12;;;;;;;0.82;0.30;;;;;;;;;;5034437;28;20056;-59
2021/07/28 11:08:37;;;;;;;0.88;0.60;;;;;;;;;;5034132;28;20017;-58
2021/07/28 11:11:02;;;;;;;0.85;0.47;;;;;;;;;;5034924;28;20018;-59
2021/07/28 11:13:31;;;;;;;1.93;0.60;;;;;;;;;;5034702;28;20538;-58
2021/07/28 11:15:58;;;;;;;0.98;0.60;;;;;;;;;;5034646;28;20263;-58
2021/07/28 11:18:35;;;;;;;0.80;0.50;;;;;;;;;;5033913;28;20013;-58
2021/07/28 11:21:07;;;;;;;1.83;0.60;;;;;;;;;;5029119;28;20358;-58
2021/07/28 11:23:32;;;;;;;1.35;0.60;;;;;;;;;;5033316;28;20369;-59
2021/07/28 11:25:59;;;;;;;1.10;0.50;;;;;;;;;;5027277;28;20032;-59
2021/07/28 11:28:25;;;;;;;0.63;0.30;;;;;;;;;;5048110;28;20258;-59
2021/07/28 11:31:00;;;;;;;1.40;0.73;;;;;;;;;;5034683;28;20025;-58
2021/07/28 11:33:26;;;;;;;1.30;0.40;;;;;;;;;;5031689;28;20034;-59
2021/07/28 11:35:53;;;;;;;0.85;0.32;;;;;;;;;;5021594;28;20037;-59
2021/07/28 11:38:20;;;;;;;1.40;0.60;;;;;;;;;;5024084;28;20021;-59
2021/07/28 11:40:49;;;;;;;1.25;0.60;;;;;;;;;;5017651;28;20076;-59
2021/07/28 11:43:21;;;;;;;0.93;0.50;;;;;;;;;;5014044;28;20029;-59
2021/07/28 11:45:47;;;;;;;2.20;1.08;;;;;;;;;;5023698;28;20017;-59
2021/07/28 11:48:31;;;;;;;1.52;0.70;;;;;;;;;;5018672;28;20021;-58
2021/07/28 11:50:56;;;;;;;6.13;0.80;;;;;;;;;;5017664;28;20040;-59